createdAt,value
2023-03-22T00:00:17.640Z,33.60
2023-03-22T00:02:44.786Z,33.30
2023-03-22T00:05:11.775Z,34.00
2023-03-22T00:07:41.147Z,34.50
2023-03-22T00:10:08.602Z,35.40
2023-03-22T00:12:37.718Z,35.20
2023-03-22T00:15:05.102Z,35.40
2023-03-22T00:17:33.067Z,35.00
2023-03-22T00:20:01.212Z,35.10
2023-03-22T00:22:28.189Z,35.70
2023-03-22T00:24:55.990Z,35.70
2023-03-22T00:27:22.974Z,36.20
2023-03-22T00:29:52.797Z,36.60
2023-03-22T00:32:20.191Z,36.80
2023-03-22T00:34:47.239Z,36.50
2023-03-22T00:37:16.591Z,35.70
2023-03-22T00:39:44.331Z,34.50
2023-03-22T00:42:11.375Z,33.90
2023-03-22T00:44:38.336Z,33.00
2023-03-22T00:47:05.494Z,32.00
2023-03-22T00:49:32.587Z,32.80
2023-03-22T00:51:59.624Z,33.50
2023-03-22T00:54:26.700Z,33.90
2023-03-22T00:56:53.690Z,34.70
2023-03-22T00:59:21.538Z,34.40
2023-03-22T01:01:48.720Z,34.10
2023-03-22T01:04:18.268Z,33.20
2023-03-22T01:06:47.169Z,32.50
2023-03-22T01:09:15.395Z,31.80
2023-03-22T01:11:43.788Z,31.20
2023-03-22T01:14:13.915Z,31.00
2023-03-22T01:16:41.336Z,31.40
2023-03-22T01:19:08.866Z,31.30
2023-03-22T01:21:36.052Z,31.00
2023-03-22T01:24:03.059Z,31.10
2023-03-22T01:26:30.144Z,31.40
2023-03-22T01:28:59.687Z,30.70
2023-03-22T01:31:26.657Z,31.40
2023-03-22T01:33:53.754Z,31.70
2023-03-22T01:36:20.777Z,31.50
2023-03-22T01:38:47.772Z,31.60
2023-03-22T01:41:16.504Z,31.70
2023-03-22T01:43:43.627Z,31.40
2023-03-22T01:46:10.662Z,31.50
2023-03-22T01:48:46.406Z,30.70
2023-03-22T01:51:22.911Z,30.40
2023-03-22T01:53:54.912Z,31.00
2023-03-22T01:56:25.659Z,30.60
2023-03-22T01:58:55.141Z,31.50
2023-03-22T02:01:22.946Z,31.30
2023-03-22T02:04:12.405Z,31.70
2023-03-22T02:06:39.737Z,31.40
2023-03-22T02:09:09.675Z,32.00
2023-03-22T02:11:42.597Z,32.80
2023-03-22T02:14:23.528Z,33.00
2023-03-22T02:17:12.169Z,33.30
2023-03-22T02:20:24.691Z,34.30
2023-03-22T02:23:10.384Z,34.30
2023-03-22T02:26:14.683Z,34.50
2023-03-22T02:28:53.036Z,34.00
2023-03-22T02:31:41.188Z,32.60
2023-03-22T02:34:17.379Z,32.70
2023-03-22T02:36:56.324Z,33.20
2023-03-22T02:39:46.476Z,33.70
2023-03-22T02:42:23.805Z,32.70
2023-03-22T02:45:02.996Z,32.60
2023-03-22T02:47:54.610Z,32.40
2023-03-22T02:50:29.825Z,32.20
2023-03-22T02:53:04.788Z,31.70
2023-03-22T02:55:57.627Z,31.10
2023-03-22T02:58:39.396Z,31.60
2023-03-22T03:01:12.439Z,32.10
2023-03-22T03:03:39.856Z,31.90
2023-03-22T03:06:14.004Z,31.40
2023-03-22T03:08:43.078Z,31.10
2023-03-22T03:11:10.266Z,30.60
2023-03-22T03:13:37.260Z,30.70
2023-03-22T03:16:07.790Z,31.40
2023-03-22T03:18:38.788Z,30.30
2023-03-22T03:21:32.794Z,30.00
2023-03-22T03:24:28.912Z,30.00
2023-03-22T03:27:17.100Z,30.40
2023-03-22T03:30:00.253Z,31.00
2023-03-22T03:32:37.761Z,30.80
2023-03-22T03:35:22.448Z,30.20
2023-03-22T03:38:18.880Z,30.50
2023-03-22T03:40:54.697Z,30.60
2023-03-22T03:43:23.123Z,30.50
2023-03-22T03:45:51.980Z,30.30
2023-03-22T03:48:23.118Z,30.70
2023-03-22T03:50:52.215Z,31.10
2023-03-22T03:53:20.285Z,32.00
2023-03-22T03:55:48.382Z,33.50
2023-03-22T03:58:16.896Z,33.90
2023-03-22T04:00:46.154Z,33.80
2023-03-22T04:03:14.147Z,34.20
2023-03-22T04:05:41.586Z,33.40
2023-03-22T04:08:08.996Z,32.70
2023-03-22T04:10:36.000Z,32.30
2023-03-22T04:13:03.116Z,31.30
2023-03-22T04:15:30.296Z,32.40
2023-03-22T04:17:57.690Z,32.70
2023-03-22T04:20:26.403Z,33.90
2023-03-22T04:22:53.461Z,33.20
2023-03-22T04:25:22.954Z,34.00
2023-03-22T04:27:51.494Z,34.80
2023-03-22T04:30:22.496Z,34.90
2023-03-22T04:32:50.392Z,34.40
2023-03-22T04:35:17.623Z,34.70
2023-03-22T04:37:45.856Z,34.50
2023-03-22T04:40:16.388Z,34.10
2023-03-22T04:42:45.622Z,34.70
2023-03-22T04:45:13.767Z,34.60
2023-03-22T04:47:41.083Z,33.60
2023-03-22T04:50:09.384Z,33.40
2023-03-22T04:52:36.386Z,33.80
2023-03-22T04:55:03.512Z,34.90
2023-03-22T04:57:30.647Z,34.50
2023-03-22T04:59:57.814Z,33.50
2023-03-22T05:02:24.826Z,31.70
2023-03-22T05:04:52.086Z,31.60
2023-03-22T05:07:19.314Z,31.50
2023-03-22T05:09:46.294Z,31.00
2023-03-22T05:12:13.396Z,30.50
2023-03-22T05:14:40.484Z,30.00
2023-03-22T05:17:07.459Z,29.70
2023-03-22T05:19:34.600Z,29.90
2023-03-22T05:22:02.178Z,29.70
2023-03-22T05:24:32.333Z,29.80
2023-03-22T05:27:01.272Z,30.10
2023-03-22T05:29:28.726Z,30.00
2023-03-22T05:31:55.845Z,30.20
2023-03-22T05:34:22.966Z,32.00
2023-03-22T05:36:51.656Z,32.60
2023-03-22T05:39:19.069Z,33.00
2023-03-22T05:41:46.788Z,33.10
2023-03-22T05:44:14.262Z,32.10
2023-03-22T05:46:41.384Z,31.70
2023-03-22T05:49:10.071Z,31.70
2023-03-22T05:51:41.711Z,32.70
2023-03-22T05:54:09.917Z,33.00
2023-03-22T05:56:37.024Z,32.40
2023-03-22T05:59:05.004Z,33.30
2023-03-22T06:01:33.697Z,33.00
2023-03-22T06:04:01.033Z,32.80
2023-03-22T06:06:28.314Z,33.00
2023-03-22T06:09:07.018Z,33.30
2023-03-22T06:11:41.467Z,33.00
2023-03-22T06:14:08.663Z,33.00
2023-03-22T06:16:35.770Z,32.50
2023-03-22T06:19:02.983Z,32.80
2023-03-22T06:21:30.074Z,32.20
2023-03-22T06:23:57.172Z,31.90
2023-03-22T06:26:24.283Z,32.30
2023-03-22T06:28:51.684Z,32.20
2023-03-22T06:31:18.683Z,32.70
2023-03-22T06:33:45.811Z,32.60
2023-03-22T06:36:12.827Z,33.70
2023-03-22T06:38:39.996Z,35.30
2023-03-22T06:41:07.357Z,35.30
2023-03-22T06:43:35.740Z,36.20
2023-03-22T06:46:02.829Z,36.50
2023-03-22T06:48:29.911Z,35.80
2023-03-22T06:50:57.014Z,35.10
2023-03-22T06:53:24.117Z,35.20
2023-03-22T06:55:53.782Z,35.40
2023-03-22T06:58:22.098Z,35.80
2023-03-22T07:00:50.576Z,35.00
2023-03-22T07:03:17.960Z,34.10
2023-03-22T07:05:45.018Z,34.30
2023-03-22T07:08:12.417Z,34.90
2023-03-22T07:10:41.118Z,35.60
2023-03-22T07:13:08.552Z,37.30
2023-03-22T07:15:35.792Z,36.90
2023-03-22T07:18:03.177Z,36.50
2023-03-22T07:20:30.351Z,36.70
2023-03-22T07:22:57.440Z,36.60
2023-03-22T07:25:24.717Z,36.40
2023-03-22T07:27:51.738Z,34.80
2023-03-22T07:30:18.717Z,33.90
2023-03-22T07:32:45.798Z,33.00
2023-03-22T07:35:12.854Z,33.40
2023-03-22T07:37:39.874Z,32.50
2023-03-22T07:40:07.849Z,32.70
2023-03-22T07:42:34.943Z,32.70
2023-03-22T07:45:02.072Z,32.30
2023-03-22T07:47:40.261Z,31.60
2023-03-22T07:50:09.614Z,32.40
2023-03-22T07:52:37.212Z,33.70
2023-03-22T07:55:04.879Z,34.20
2023-03-22T07:57:31.858Z,34.50
2023-03-22T07:59:59.054Z,35.00
2023-03-22T08:02:26.369Z,35.10
2023-03-22T08:04:56.425Z,34.50
2023-03-22T08:07:25.579Z,34.80
2023-03-22T08:09:53.040Z,35.10
2023-03-22T08:12:20.262Z,35.50
2023-03-22T08:14:50.682Z,34.70
2023-03-22T08:17:19.201Z,34.70
2023-03-22T08:19:46.510Z,36.30
2023-03-22T08:22:13.761Z,37.30
2023-03-22T08:24:40.941Z,36.10
2023-03-22T08:27:07.977Z,36.20
2023-03-22T08:29:35.064Z,35.70
2023-03-22T08:32:03.824Z,34.60
2023-03-22T08:34:31.527Z,34.60
2023-03-22T08:36:58.876Z,33.50
2023-03-22T08:39:26.240Z,32.70
2023-03-22T08:41:53.252Z,32.70
2023-03-22T08:44:20.308Z,33.60
2023-03-22T08:46:47.414Z,32.90
2023-03-22T08:49:15.094Z,32.40
2023-03-22T08:51:42.204Z,32.50
2023-03-22T08:54:10.077Z,33.10
2023-03-22T08:56:41.895Z,34.40
2023-03-22T08:59:09.960Z,35.70
2023-03-22T09:01:37.711Z,35.20
2023-03-22T09:04:05.928Z,34.50
2023-03-22T09:06:34.294Z,34.40
2023-03-22T09:09:01.323Z,34.60
2023-03-22T09:11:28.565Z,34.60
2023-03-22T09:13:58.550Z,34.40
2023-03-22T09:16:25.616Z,34.50
2023-03-22T09:18:52.974Z,35.80
2023-03-22T09:21:21.485Z,34.50
2023-03-22T09:23:48.570Z,34.20
2023-03-22T09:26:15.688Z,34.50
2023-03-22T09:28:43.359Z,34.10
2023-03-22T09:31:11.459Z,35.50
2023-03-22T09:33:41.040Z,35.10
2023-03-22T09:36:09.762Z,35.30
2023-03-22T09:38:36.795Z,34.60
2023-03-22T09:41:07.652Z,33.60
2023-03-22T09:43:50.557Z,33.90
2023-03-22T09:46:48.007Z,36.00
2023-03-22T09:49:19.384Z,36.40
2023-03-22T09:51:52.593Z,35.70
2023-03-22T09:54:31.060Z,37.90
2023-03-22T09:57:33.053Z,39.00
2023-03-22T10:00:24.796Z,36.40
2023-03-22T10:03:36.672Z,34.50
2023-03-22T10:06:20.249Z,35.20
2023-03-22T10:08:50.228Z,35.40
2023-03-22T10:11:20.051Z,34.90
2023-03-22T10:14:02.248Z,35.40
2023-03-22T10:16:34.424Z,34.80
2023-03-22T10:19:31.148Z,35.90
2023-03-22T10:22:00.401Z,35.80
2023-03-22T10:24:32.224Z,36.40
2023-03-22T10:26:59.378Z,35.20
2023-03-22T10:29:39.849Z,35.50
2023-03-22T10:32:18.090Z,34.80
2023-03-22T10:34:46.720Z,35.10
2023-03-22T10:37:21.914Z,35.10
2023-03-22T10:39:56.075Z,34.40
2023-03-22T10:42:27.805Z,34.30
2023-03-22T10:45:08.990Z,33.30
2023-03-22T10:47:43.878Z,34.30
2023-03-22T10:50:28.884Z,35.70
2023-03-22T10:52:58.839Z,34.00
2023-03-22T10:55:26.612Z,34.30
2023-03-22T10:58:15.192Z,34.30
2023-03-22T11:00:53.903Z,33.10
2023-03-22T11:03:37.062Z,32.50
2023-03-22T11:06:17.818Z,32.50
2023-03-22T11:08:54.180Z,32.00
2023-03-22T11:11:27.727Z,32.40
2023-03-22T11:14:14.762Z,31.80
2023-03-22T11:20:07.819Z,33.20
2023-03-22T11:22:40.812Z,33.40
2023-03-22T11:25:21.169Z,32.70
2023-03-22T11:27:58.063Z,31.80
2023-03-22T11:30:29.714Z,31.50
2023-03-22T11:33:08.965Z,31.00
2023-03-22T11:35:38.430Z,31.00
2023-03-22T11:38:05.862Z,30.40
2023-03-22T11:40:36.435Z,31.10
2023-03-22T11:43:15.129Z,30.70
2023-03-22T11:45:44.010Z,30.50
2023-03-22T11:48:18.682Z,30.00
2023-03-22T11:50:46.652Z,30.00
2023-03-22T11:53:22.985Z,30.00
2023-03-22T11:55:53.886Z,30.40
2023-03-22T11:58:55.818Z,31.80
2023-03-22T12:01:45.022Z,32.00
2023-03-22T12:04:17.893Z,32.10
2023-03-22T12:06:45.018Z,32.40
2023-03-22T12:09:53.399Z,32.40
2023-03-22T12:12:26.583Z,31.90
2023-03-22T12:15:07.361Z,31.70
2023-03-22T12:17:54.643Z,31.70
2023-03-22T12:20:43.430Z,31.00
2023-03-22T12:23:36.871Z,31.70
2023-03-22T12:26:21.687Z,29.60
2023-03-22T12:28:57.047Z,29.30
2023-03-22T12:31:43.733Z,30.60
2023-03-22T12:34:29.259Z,30.80
2023-03-22T12:36:57.532Z,31.20
2023-03-22T12:39:43.439Z,31.70
2023-03-22T12:42:47.909Z,31.00
2023-03-22T12:45:23.462Z,29.30
2023-03-22T12:47:58.220Z,28.80
2023-03-22T12:50:33.595Z,29.30
2023-03-22T12:53:02.638Z,29.50
2023-03-22T12:55:36.486Z,29.20
2023-03-22T12:58:06.826Z,29.30
2023-03-22T13:01:09.326Z,30.90
2023-03-22T13:03:48.758Z,30.20
2023-03-22T13:06:45.592Z,29.90
2023-03-22T13:09:17.301Z,29.00
2023-03-22T13:11:47.496Z,29.20
2023-03-22T13:14:49.876Z,29.40
2023-03-22T13:17:41.180Z,29.70
2023-03-22T13:20:12.139Z,29.90
2023-03-22T13:22:39.116Z,29.20
2023-03-22T13:25:17.154Z,29.60
2023-03-22T13:27:57.384Z,29.40
2023-03-22T13:30:35.841Z,29.30
2023-03-22T13:33:24.905Z,28.70
2023-03-22T13:36:01.441Z,29.30
2023-03-22T13:39:12.467Z,28.80
2023-03-22T13:41:40.023Z,29.60
2023-03-22T13:44:28.760Z,29.40
2023-03-22T13:47:00.086Z,29.80
2023-03-22T13:50:02.297Z,29.90
2023-03-22T13:52:36.802Z,30.30
2023-03-22T13:55:13.790Z,30.80
2023-03-22T13:57:59.144Z,30.60
2023-03-22T14:00:31.981Z,30.00
2023-03-22T14:03:04.410Z,30.00
2023-03-22T14:05:36.433Z,30.30
2023-03-22T14:08:04.459Z,30.00
2023-03-22T14:10:40.566Z,30.00
2023-03-22T14:13:29.007Z,30.20
2023-03-22T14:16:19.844Z,30.60
2023-03-22T14:18:49.843Z,30.90
2023-03-22T14:21:22.008Z,31.90
